createdAt,value
2022-11-18T00:00:43.167Z,96858.69
2022-11-18T00:01:45.031Z,96860.53
2022-11-18T00:02:47.036Z,96867.44
2022-11-18T00:03:50.164Z,96862.16
2022-11-18T00:04:51.966Z,96864.22
2022-11-18T00:05:56.075Z,96857.88
2022-11-18T00:06:57.933Z,96864.22
2022-11-18T00:07:59.793Z,96859.19
2022-11-18T00:09:01.653Z,96862.38
2022-11-18T00:10:03.789Z,96858.94
2022-11-18T00:11:13.083Z,96858.47
2022-11-18T00:12:33.247Z,96860.78
2022-11-18T00:13:56.240Z,96860.78
2022-11-18T00:14:58.338Z,96855.75
2022-11-18T00:16:11.553Z,96861.00
2022-11-18T00:17:13.369Z,96847.28
2022-11-18T00:18:15.259Z,96856.78
2022-11-18T00:19:18.842Z,96856.78
2022-11-18T00:20:21.018Z,96861.81
2022-11-18T00:21:22.858Z,96859.97
2022-11-18T00:22:29.749Z,96859.19
2022-11-18T00:23:32.595Z,96853.09
2022-11-18T00:24:34.784Z,96861.00
2022-11-18T00:25:36.613Z,96857.56
2022-11-18T00:26:38.577Z,96853.09
2022-11-18T00:27:40.299Z,96854.94
2022-11-18T00:28:42.646Z,96853.34
2022-11-18T00:29:44.429Z,96845.97
2022-11-18T00:30:46.190Z,96858.38
2022-11-18T00:31:48.802Z,96856.28
2022-11-18T00:32:50.563Z,96854.94
2022-11-18T00:33:52.334Z,96854.69
2022-11-18T00:34:54.187Z,96857.34
2022-11-18T00:35:56.487Z,96860.78
2022-11-18T00:36:58.351Z,96855.50
2022-11-18T00:38:00.280Z,96848.38
2022-11-18T00:39:02.134Z,96852.84
2022-11-18T00:40:04.555Z,96851.81
2022-11-18T00:41:10.855Z,96854.25
2022-11-18T00:42:31.277Z,96855.25
2022-11-18T00:43:34.654Z,96857.09
2022-11-18T00:44:36.930Z,96858.13
2022-11-18T00:45:38.718Z,96856.53
2022-11-18T00:46:40.641Z,96853.91
2022-11-18T00:47:42.472Z,96851.00
2022-11-18T00:48:44.368Z,96847.56
2022-11-18T00:49:46.236Z,96843.09
2022-11-18T00:50:58.572Z,96839.91
2022-11-18T00:52:01.274Z,96841.75
2022-11-18T00:53:03.090Z,96843.59
2022-11-18T00:54:05.337Z,96840.94
2022-11-18T00:55:07.860Z,96840.94
2022-11-18T00:56:10.443Z,96838.56
2022-11-18T00:57:12.170Z,96849.09
2022-11-18T00:58:16.809Z,96845.66
2022-11-18T00:59:18.897Z,96850.16
2022-11-18T01:00:21.033Z,96848.31
2022-11-18T01:01:22.957Z,96854.63
2022-11-18T01:02:24.860Z,96853.81
2022-11-18T01:03:28.740Z,96862.53
2022-11-18T01:04:30.728Z,96856.47
2022-11-18T01:05:32.541Z,96852.22
2022-11-18T01:06:34.336Z,96858.31
2022-11-18T01:07:36.123Z,96849.00
2022-11-18T01:08:37.862Z,96845.56
2022-11-18T01:09:39.685Z,96848.22
2022-11-18T01:10:42.139Z,96849.25
2022-11-18T01:12:02.537Z,96855.56
2022-11-18T01:13:21.573Z,96852.69
2022-11-18T01:14:25.706Z,96852.94
2022-11-18T01:15:27.468Z,96857.66
2022-11-18T01:16:30.754Z,96855.00
2022-11-18T01:17:32.668Z,96859.50
2022-11-18T01:18:34.511Z,96856.28
2022-11-18T01:19:36.573Z,96857.09
2022-11-18T01:20:38.669Z,96865.00
2022-11-18T01:21:40.463Z,96863.41
2022-11-18T01:22:42.258Z,96860.22
2022-11-18T01:23:44.798Z,96861.81
2022-11-18T01:24:46.824Z,96863.88
2022-11-18T01:25:49.853Z,96866.75
2022-11-18T01:26:51.654Z,96866.75
2022-11-18T01:27:53.683Z,96867.53
2022-11-18T01:28:57.729Z,96866.75
2022-11-18T01:29:59.560Z,96874.66
2022-11-18T01:31:14.792Z,96877.28
2022-11-18T01:32:24.457Z,96869.63
2022-11-18T01:33:27.170Z,96871.47
2022-11-18T01:34:29.643Z,96874.91
2022-11-18T01:35:49.584Z,96867.78
2022-11-18T01:36:53.264Z,96867.22
2022-11-18T01:37:55.116Z,96875.94
2022-11-18T01:38:57.285Z,96876.19
2022-11-18T01:39:59.074Z,96871.94
2022-11-18T01:41:00.852Z,96877.47
2022-11-18T01:42:02.588Z,96864.50
2022-11-18T01:43:19.670Z,96866.91
2022-11-18T01:45:10.740Z,96867.16
2022-11-18T01:46:12.615Z,96870.00
2022-11-18T01:47:14.430Z,96872.63
2022-11-18T01:48:34.906Z,96870.00
2022-11-18T01:49:36.831Z,96869.44
2022-11-18T01:50:49.099Z,96866.00
2022-11-18T01:51:58.551Z,96866.81
2022-11-18T01:53:11.741Z,96865.75
2022-11-18T01:54:39.684Z,96863.94
2022-11-18T01:55:46.363Z,96875.06
2022-11-18T01:56:54.173Z,96874.25
2022-11-18T01:58:11.308Z,96879.75
2022-11-18T01:59:19.381Z,96883.19
2022-11-18T02:00:21.660Z,96878.94
2022-11-18T02:01:24.018Z,96878.72
2022-11-18T02:02:27.254Z,96872.63
2022-11-18T02:03:29.723Z,96880.34
2022-11-18T02:04:31.963Z,96878.72
2022-11-18T02:05:36.273Z,96879.53
2022-11-18T02:06:38.511Z,96881.34
2022-11-18T02:07:43.492Z,96882.19
2022-11-18T02:08:46.676Z,96889.25
2022-11-18T02:09:49.737Z,96891.88
2022-11-18T02:10:51.622Z,96885.03
2022-11-18T02:11:56.489Z,96885.81
2022-11-18T02:12:59.477Z,96890.28
2022-11-18T02:14:05.970Z,96889.25
2022-11-18T02:15:09.075Z,96889.25
2022-11-18T02:16:22.807Z,96906.13
2022-11-18T02:17:42.476Z,96903.72
2022-11-18T02:19:00.195Z,96901.66
2022-11-18T02:20:31.136Z,96900.84
2022-11-18T02:22:22.510Z,96907.16
2022-11-18T02:24:11.528Z,96908.44
2022-11-18T02:25:56.376Z,96903.63
2022-11-18T02:27:34.949Z,96904.69
2022-11-18T02:29:06.899Z,96907.53
2022-11-18T02:30:13.381Z,96908.53
2022-11-18T02:31:25.299Z,96909.56
2022-11-18T02:32:41.215Z,96909.81
2022-11-18T02:34:03.703Z,96912.22
2022-11-18T02:35:28.514Z,96910.59
2022-11-18T02:37:07.680Z,96910.84
2022-11-18T02:38:28.154Z,96907.41
2022-11-18T02:39:42.871Z,96911.88
2022-11-18T02:40:54.451Z,96922.66
2022-11-18T02:41:58.719Z,96929.53
2022-11-18T02:43:13.310Z,96934.81
2022-11-18T02:44:17.926Z,96943.53
2022-11-18T02:45:21.898Z,96937.44
2022-11-18T02:46:49.563Z,96941.44
2022-11-18T02:47:55.460Z,96943.53
2022-11-18T02:48:57.352Z,96944.31
2022-11-18T02:50:11.365Z,96952.78
2022-11-18T02:51:20.240Z,96942.50
2022-11-18T02:52:25.914Z,96945.13
2022-11-18T02:53:31.962Z,96940.66
2022-11-18T02:54:39.091Z,96940.66
2022-11-18T02:55:44.265Z,96942.50
2022-11-18T02:56:49.267Z,96940.66
2022-11-18T02:57:51.915Z,96946.16
2022-11-18T02:58:53.967Z,96945.38
2022-11-18T02:59:55.830Z,96943.75
2022-11-18T03:01:01.029Z,96942.72
2022-11-18T03:02:03.123Z,96946.41
2022-11-18T03:03:29.552Z,96949.84
2022-11-18T03:04:34.198Z,96948.47
2022-11-18T03:05:51.053Z,96942.63
2022-11-18T03:07:17.492Z,96937.38
2022-11-18T03:08:27.676Z,96939.19
2022-11-18T03:09:38.774Z,96928.63
2022-11-18T03:11:01.356Z,96933.09
2022-11-18T03:12:31.687Z,96933.69
2022-11-18T03:14:02.553Z,96926.47
2022-11-18T03:15:32.531Z,96916.72
2022-11-18T03:16:51.850Z,96914.56
2022-11-18T03:18:20.779Z,96915.13
2022-11-18T03:19:50.364Z,96925.91
2022-11-18T03:21:14.697Z,96920.88
2022-11-18T03:22:35.723Z,96926.16
2022-11-18T03:23:59.701Z,96940.94
2022-11-18T03:25:23.799Z,96937.50
2022-11-18T03:26:36.480Z,96927.97
2022-11-18T03:27:56.651Z,96935.88
2022-11-18T03:29:16.231Z,96940.13
2022-11-18T03:30:23.527Z,96940.38
2022-11-18T03:31:50.068Z,96938.53
2022-11-18T03:33:04.513Z,96945.41
2022-11-18T03:34:19.266Z,96943.81
2022-11-18T03:35:33.179Z,96943.81
2022-11-18T03:36:42.474Z,96950.91
2022-11-18T03:37:47.453Z,96950.91
2022-11-18T03:38:56.912Z,96953.31
2022-11-18T03:40:11.904Z,96957.78
2022-11-18T03:41:19.205Z,96963.84
2022-11-18T03:42:40.720Z,96965.69
2022-11-18T03:43:53.518Z,96967.75
2022-11-18T03:45:09.520Z,96973.59
2022-11-18T03:46:31.730Z,96971.19
2022-11-18T03:47:42.018Z,96976.69
2022-11-18T03:48:54.794Z,96978.31
2022-11-18T03:50:12.625Z,96982.78
2022-11-18T03:51:21.986Z,96989.88
2022-11-18T03:52:31.460Z,96998.78
2022-11-18T03:53:38.929Z,96997.78
2022-11-18T03:54:45.111Z,96999.03
2022-11-18T03:55:54.831Z,97004.06
2022-11-18T03:57:15.633Z,97007.53
2022-11-18T03:58:40.183Z,97010.38
2022-11-18T04:00:11.223Z,97006.13
2022-11-18T04:01:21.598Z,97008.78
2022-11-18T04:02:28.127Z,97013.25
2022-11-18T04:03:30.757Z,97012.44
2022-11-18T04:04:33.043Z,97008.22
2022-11-18T04:05:40.725Z,97010.03
2022-11-18T04:06:50.904Z,97010.03
2022-11-18T04:08:02.647Z,97013.47
2022-11-18T04:09:17.317Z,97012.13
2022-11-18T04:10:31.873Z,97005.00
2022-11-18T04:12:02.994Z,97013.94
2022-11-18T04:13:28.861Z,97009.72
2022-11-18T04:14:36.652Z,97014.97
2022-11-18T04:15:42.621Z,97018.06
2022-11-18T04:16:45.653Z,97015.44
2022-11-18T04:17:47.533Z,97025.97
2022-11-18T04:18:49.358Z,97018.66
2022-11-18T04:19:51.348Z,97018.66
2022-11-18T04:20:53.775Z,97021.28
2022-11-18T04:21:55.604Z,97015.22
2022-11-18T04:22:57.529Z,97015.22
2022-11-18T04:23:59.402Z,97022.31
2022-11-18T04:25:01.257Z,97017.84
2022-11-18T04:26:03.155Z,97011.56
2022-11-18T04:27:06.173Z,97014.97
2022-11-18T04:28:08.135Z,97008.91
2022-11-18T04:29:09.972Z,97020.25
2022-11-18T04:30:12.779Z,97008.13
2022-11-18T04:31:14.647Z,97014.41
2022-11-18T04:32:16.528Z,97020.25
2022-11-18T04:33:18.391Z,97017.06
2022-11-18T04:34:20.300Z,97021.50
2022-11-18T04:35:22.282Z,97016.22
2022-11-18T04:36:24.105Z,97013.59
2022-11-18T04:37:26.250Z,97024.13
2022-11-18T04:38:28.098Z,97009.94
2022-11-18T04:39:29.959Z,97017.06
2022-11-18T04:40:31.774Z,97012.78
2022-11-18T04:41:52.084Z,97023.34
2022-11-18T04:42:53.901Z,97016.69
2022-11-18T04:43:55.768Z,97020.13
2022-11-18T04:44:58.241Z,97024.59
2022-11-18T04:46:00.123Z,97027.22
2022-11-18T04:47:05.663Z,97030.22
2022-11-18T04:48:07.460Z,97026.19
2022-11-18T04:49:12.983Z,97035.72
2022-11-18T04:50:14.833Z,97031.25
2022-11-18T04:51:16.726Z,97029.63
2022-11-18T04:52:18.645Z,97028.03
2022-11-18T04:53:20.460Z,97028.84
2022-11-18T04:54:23.092Z,97028.03
2022-11-18T04:55:27.200Z,97030.66
2022-11-18T04:56:29.096Z,97031.72
2022-11-18T04:57:30.923Z,97035.94
2022-11-18T04:58:33.543Z,97038.56
2022-11-18T04:59:36.302Z,97044.09
2022-11-18T05:00:38.134Z,97042.25
2022-11-18T05:01:40.612Z,97049.13
2022-11-18T05:02:42.576Z,97046.16
2022-11-18T05:03:49.346Z,97049.59
2022-11-18T05:04:52.478Z,97051.66
2022-11-18T05:05:54.305Z,97052.44
2022-11-18T05:06:56.777Z,97051.41
2022-11-18T05:07:58.668Z,97052.69
2022-11-18T05:09:01.429Z,97051.88
2022-11-18T05:10:03.438Z,97051.88
2022-11-18T05:11:27.236Z,97065.06
2022-11-18T05:12:48.320Z,97060.03
2022-11-18T05:13:50.987Z,97056.78
2022-11-18T05:14:52.801Z,97060.47
2022-11-18T05:15:54.649Z,97059.44
2022-11-18T05:17:01.438Z,97065.72
2022-11-18T05:18:03.446Z,97059.88
2022-11-18T05:19:06.649Z,97067.00
2022-11-18T05:20:09.382Z,97067.56
2022-11-18T05:21:11.746Z,97067.00
2022-11-18T05:22:15.694Z,97077.31
2022-11-18T05:23:17.593Z,97071.47
2022-11-18T05:24:19.537Z,97067.00
2022-11-18T05:25:21.391Z,97068.81
2022-11-18T05:26:23.207Z,97065.41
2022-11-18T05:27:25.132Z,97066.66
2022-11-18T05:28:27.172Z,97076.16
2022-11-18T05:29:29.240Z,97068.50
2022-11-18T05:30:31.096Z,97080.88
2022-11-18T05:31:33.206Z,97079.22
2022-11-18T05:32:35.037Z,97078.44
2022-11-18T05:33:37.104Z,97078.44
2022-11-18T05:34:43.454Z,97080.06
2022-11-18T05:35:45.325Z,97078.44
2022-11-18T05:36:47.163Z,97077.63
2022-11-18T05:37:48.974Z,97083.13
2022-11-18T05:38:50.909Z,97083.94
2022-11-18T05:39:52.749Z,97083.94
2022-11-18T05:40:54.659Z,97088.16
2022-11-18T05:42:15.033Z,97089.19
2022-11-18T05:43:16.866Z,97086.00
2022-11-18T05:44:18.837Z,97091.25
2022-11-18T05:45:20.681Z,97086.22
2022-11-18T05:46:22.782Z,97093.09
2022-11-18T05:47:25.174Z,97093.91
2022-11-18T05:48:27.243Z,97094.13
2022-11-18T05:49:29.040Z,97101.81
2022-11-18T05:50:33.897Z,97095.72
2022-11-18T05:51:36.041Z,97096.53
2022-11-18T05:52:37.918Z,97099.63
2022-11-18T05:53:39.777Z,97104.09
2022-11-18T05:54:49.699Z,97107.31
2022-11-18T05:56:08.764Z,97110.75
2022-11-18T05:57:10.605Z,97107.53
2022-11-18T05:58:12.465Z,97110.16
2022-11-18T05:59:14.708Z,97106.97
2022-11-18T06:00:17.666Z,97112.22
2022-11-18T06:02:03.842Z,97114.06
2022-11-18T06:03:17.628Z,97111.44
2022-11-18T06:04:46.468Z,97116.91
2022-11-18T06:05:50.721Z,97112.66
2022-11-18T06:07:00.527Z,97117.94
2022-11-18T06:08:02.772Z,97124.22
2022-11-18T06:09:08.619Z,97121.59
2022-11-18T06:10:21.033Z,97123.19
2022-11-18T06:11:23.867Z,97124.22
2022-11-18T06:12:30.207Z,97128.69
2022-11-18T06:13:41.410Z,97127.88
2022-11-18T06:15:09.592Z,97132.13
2022-11-18T06:16:13.448Z,97134.19
2022-11-18T06:17:23.694Z,97126.53
2022-11-18T06:18:31.663Z,97132.59
2022-11-18T06:19:34.393Z,97140.50
2022-11-18T06:20:41.146Z,97139.69
2022-11-18T06:21:44.859Z,97135.44
2022-11-18T06:22:50.314Z,97137.28
2022-11-18T06:23:52.288Z,97142.56
2022-11-18T06:24:54.340Z,97144.38
2022-11-18T06:25:56.503Z,97139.13
2022-11-18T06:26:59.745Z,97148.84
2022-11-18T06:28:02.826Z,97153.09
2022-11-18T06:29:08.355Z,97151.03
2022-11-18T06:30:11.403Z,97144.97
2022-11-18T06:31:13.218Z,97153.88
2022-11-18T06:32:15.065Z,97155.25
2022-11-18T06:33:16.874Z,97152.63
2022-11-18T06:34:18.719Z,97158.69
2022-11-18T06:35:20.493Z,97158.69
2022-11-18T06:36:22.329Z,97157.91
2022-11-18T06:37:24.242Z,97161.34
2022-11-18T06:38:26.277Z,97150.78
2022-11-18T06:39:28.171Z,97164.19
2022-11-18T06:40:34.756Z,97160.31
2022-11-18T06:41:36.957Z,97166.38
2022-11-18T06:42:57.160Z,97164.53
2022-11-18T06:43:59.331Z,97170.63
2022-11-18T06:45:02.271Z,97170.84
2022-11-18T06:46:25.467Z,97170.63
2022-11-18T06:47:27.417Z,97161.09
2022-11-18T06:48:29.188Z,97171.41
2022-11-18T06:49:31.015Z,97180.13
2022-11-18T06:50:32.814Z,97171.41
2022-11-18T06:51:35.065Z,97176.47
2022-11-18T06:52:36.920Z,97173.84
2022-11-18T06:53:39.108Z,97181.75
2022-11-18T06:54:40.838Z,97182.56
2022-11-18T06:55:42.613Z,97185.75
2022-11-18T06:56:44.726Z,97187.81
2022-11-18T06:57:46.595Z,97187.59
2022-11-18T06:58:53.366Z,97177.84
2022-11-18T07:00:00.608Z,97184.16
2022-11-18T07:01:19.206Z,97192.63
2022-11-18T07:02:21.138Z,97191.84
2022-11-18T07:03:23.327Z,97191.03
2022-11-18T07:04:25.202Z,97200.75
2022-11-18T07:05:27.075Z,97203.41
2022-11-18T07:06:32.807Z,97196.28
2022-11-18T07:07:41.759Z,97195.50
2022-11-18T07:08:44.677Z,97204.44
2022-11-18T07:09:46.402Z,97206.25
2022-11-18T07:10:54.771Z,97209.69
2022-11-18T07:11:56.890Z,97207.06
2022-11-18T07:12:58.590Z,97210.50
2022-11-18T07:14:01.110Z,97209.69
2022-11-18T07:15:03.096Z,97213.13
2022-11-18T07:16:14.958Z,97209.69
2022-11-18T07:17:16.850Z,97209.69
2022-11-18T07:18:18.719Z,97216.19
2022-11-18T07:19:20.635Z,97221.47
2022-11-18T07:20:22.646Z,97218.03
2022-11-18T07:21:27.797Z,97222.25
2022-11-18T07:22:29.652Z,97225.13
2022-11-18T07:23:33.412Z,97222.25
2022-11-18T07:24:35.322Z,97220.66
2022-11-18T07:25:41.260Z,97224.91
2022-11-18T07:26:46.282Z,97225.13
2022-11-18T07:27:48.138Z,97226.72
2022-11-18T07:28:50.319Z,97232.81
2022-11-18T07:29:52.148Z,97240.69
2022-11-18T07:31:01.040Z,97232.81
2022-11-18T07:32:02.921Z,97227.53
2022-11-18T07:33:04.767Z,97238.88
2022-11-18T07:34:07.933Z,97238.88
2022-11-18T07:35:10.343Z,97234.63
2022-11-18T07:36:20.181Z,97242.34
2022-11-18T07:37:21.997Z,97243.56
2022-11-18T07:38:23.900Z,97248.59
2022-11-18T07:39:25.717Z,97247.81
2022-11-18T07:40:27.588Z,97245.16
2022-11-18T07:41:31.077Z,97246.78
2022-11-18T07:42:42.468Z,97257.31
2022-11-18T07:43:45.576Z,97254.91
2022-11-18T07:44:47.428Z,97257.31
2022-11-18T07:45:49.223Z,97261.78
2022-11-18T07:46:51.155Z,97256.50
2022-11-18T07:47:52.984Z,97262.81
2022-11-18T07:48:58.114Z,97261.19
2022-11-18T07:49:59.966Z,97261.19
2022-11-18T07:51:01.763Z,97255.94
2022-11-18T07:52:03.766Z,97260.97
2022-11-18T07:53:05.694Z,97268.06
2022-11-18T07:54:14.478Z,97265.44
2022-11-18T07:55:16.349Z,97265.44
2022-11-18T07:56:18.978Z,97275.97
2022-11-18T07:57:21.066Z,97270.72
2022-11-18T07:58:22.952Z,97274.38
2022-11-18T07:59:25.396Z,97275.16
2022-11-18T08:00:27.232Z,97273.56
2022-11-18T08:01:30.804Z,97283.06
2022-11-18T08:02:32.819Z,97283.88
2022-11-18T08:03:35.165Z,97283.06
2022-11-18T08:04:37.997Z,97286.50
2022-11-18T08:05:40.094Z,97288.13
2022-11-18T08:06:42.010Z,97282.84
2022-11-18T08:07:44.257Z,97290.75
2022-11-18T08:08:47.442Z,97286.28
2022-11-18T08:09:49.325Z,97287.31
2022-11-18T08:10:51.162Z,97282.84
2022-11-18T08:11:53.032Z,97286.50
2022-11-18T08:12:57.236Z,97294.19
2022-11-18T08:13:59.144Z,97286.28
2022-11-18T08:15:01.001Z,97287.13
2022-11-18T08:16:04.689Z,97287.94
2022-11-18T08:17:06.480Z,97290.75
2022-11-18T08:18:13.550Z,97293.38
2022-11-18T08:19:16.641Z,97294.19
2022-11-18T08:20:18.735Z,97297.84
2022-11-18T08:21:22.780Z,97295.22
2022-11-18T08:22:24.595Z,97306.56
2022-11-18T08:23:32.368Z,97298.06
2022-11-18T08:24:35.975Z,97298.88
2022-11-18T08:25:37.840Z,97298.06
2022-11-18T08:26:39.745Z,97304.94
2022-11-18T08:27:41.670Z,97308.38
2022-11-18T08:28:45.422Z,97299.69
2022-11-18T08:29:47.340Z,97309.19
2022-11-18T08:30:49.222Z,97310.00
2022-11-18T08:31:51.147Z,97316.28
2022-11-18T08:32:53.018Z,97304.94
2022-11-18T08:34:07.015Z,97303.94
2022-11-18T08:35:11.328Z,97312.63
2022-11-18T08:36:15.431Z,97306.56
2022-11-18T08:37:18.134Z,97309.81
2022-11-18T08:38:19.977Z,97308.19
2022-11-18T08:39:21.885Z,97310.00
2022-11-18T08:40:23.975Z,97310.00
2022-11-18T08:41:33.913Z,97311.63
2022-11-18T08:42:37.714Z,97313.47
2022-11-18T08:43:39.553Z,97308.19
2022-11-18T08:44:41.422Z,97314.47
2022-11-18T08:45:43.283Z,97317.91
2022-11-18T08:46:45.776Z,97311.63
2022-11-18T08:47:47.649Z,97324.81
2022-11-18T08:48:49.716Z,97316.09
2022-11-18T08:49:51.589Z,97316.91
2022-11-18T08:50:54.901Z,97313.47
2022-11-18T08:51:56.749Z,97314.47
2022-11-18T08:52:58.594Z,97323.16
2022-11-18T08:54:01.119Z,97324.19
2022-11-18T08:55:04.347Z,97326.63
2022-11-18T08:56:06.678Z,97325.00
2022-11-18T08:57:08.597Z,97326.41
2022-11-18T08:58:10.422Z,97326.63
2022-11-18T08:59:12.545Z,97319.53
2022-11-18T09:00:15.229Z,97331.91
2022-11-18T09:01:17.263Z,97333.50
2022-11-18T09:02:23.603Z,97336.94
2022-11-18T09:03:25.407Z,97331.69
2022-11-18T09:04:27.314Z,97336.16
2022-11-18T09:05:29.035Z,97329.03
2022-11-18T09:06:30.916Z,97334.31
2022-11-18T09:07:32.890Z,97337.97
2022-11-18T09:08:35.146Z,97332.47
2022-11-18T09:09:37.020Z,97330.06
2022-11-18T09:10:39.466Z,97331.69
2022-11-18T09:11:41.427Z,97328.25
2022-11-18T09:12:43.291Z,97333.50
2022-11-18T09:14:53.462Z,97334.31
2022-11-18T09:15:13.792Z,97342.44
2022-11-18T09:16:16.279Z,97335.34
2022-11-18T09:17:18.180Z,97339.59
2022-11-18T09:18:20.041Z,97343.25
2022-11-18T09:19:46.206Z,97339.81
2022-11-18T09:20:53.256Z,97337.97
2022-11-18T09:21:55.073Z,97342.44
2022-11-18T09:22:56.916Z,97344.84
2022-11-18T09:23:58.712Z,97349.50
2022-11-18T09:25:00.496Z,97346.88
2022-11-18T09:26:06.697Z,97352.97
2022-11-18T09:27:12.367Z,97342.63
2022-11-18T09:28:18.407Z,97343.44
2022-11-18T09:29:25.232Z,97346.69
2022-11-18T09:30:27.139Z,97351.94
2022-11-18T09:31:28.964Z,97341.41
2022-11-18T09:32:32.703Z,97348.28
2022-11-18T09:33:35.754Z,97353.56
2022-11-18T09:34:37.708Z,97349.09
2022-11-18T09:35:43.722Z,97348.28
2022-11-18T09:36:45.821Z,97348.28
2022-11-18T09:37:47.706Z,97350.69
2022-11-18T09:38:53.239Z,97357.56
2022-11-18T09:39:55.428Z,97353.09
2022-11-18T09:41:36.864Z,97359.97
2022-11-18T09:43:16.120Z,97361.00
2022-11-18T09:44:42.617Z,97364.44
2022-11-18T09:45:53.944Z,97363.66
2022-11-18T09:47:28.518Z,97359.97
2022-11-18T09:48:50.213Z,97359.41
2022-11-18T09:49:56.005Z,97363.41
2022-11-18T09:50:58.280Z,97368.69
2022-11-18T09:52:31.308Z,97362.41
2022-11-18T09:53:42.170Z,97363.19
2022-11-18T09:54:44.413Z,97360.56
2022-11-18T09:55:48.939Z,97361.13
2022-11-18T09:56:54.978Z,97361.97
2022-11-18T09:57:59.889Z,97368.06
2022-11-18T09:59:04.644Z,97366.00
2022-11-18T10:00:24.454Z,97368.41
2022-11-18T10:01:27.908Z,97365.19
2022-11-18T10:02:44.539Z,97367.59
2022-11-18T10:03:46.962Z,97367.59
2022-11-18T10:04:48.884Z,97364.75
2022-11-18T10:06:31.249Z,97370.81
2022-11-18T10:07:56.877Z,97372.19
2022-11-18T10:09:35.352Z,97367.50
2022-11-18T10:11:07.915Z,97370.97
2022-11-18T10:12:46.946Z,97370.75
2022-11-18T10:14:10.437Z,97375.22
2022-11-18T10:15:42.784Z,97377.41
2022-11-18T10:17:09.026Z,97375.56
2022-11-18T10:19:00.166Z,97378.78
2022-11-18T10:20:31.820Z,97381.41
2022-11-18T10:22:13.865Z,97375.69
2022-11-18T10:23:53.169Z,97378.94
2022-11-18T10:24:57.831Z,97375.28
2022-11-18T10:25:59.670Z,97375.03
2022-11-18T10:27:02.516Z,97375.63
2022-11-18T10:28:29.630Z,97384.69
2022-11-18T10:29:31.497Z,97385.72
2022-11-18T10:30:33.377Z,97379.63
2022-11-18T10:31:52.950Z,97376.59
2022-11-18T10:33:23.365Z,97383.47
2022-11-18T10:34:25.264Z,97386.09
2022-11-18T10:35:37.072Z,97390.91
2022-11-18T10:36:40.326Z,97390.09
2022-11-18T10:39:15.624Z,97387.81
2022-11-18T10:40:27.932Z,97388.41
2022-11-18T10:41:32.092Z,97396.53
2022-11-18T10:42:46.845Z,97391.84
2022-11-18T10:43:56.044Z,97388.22
2022-11-18T10:45:21.061Z,97394.84
2022-11-18T10:46:29.091Z,97398.28
2022-11-18T10:47:33.192Z,97394.84
2022-11-18T10:48:35.075Z,97393.03
2022-11-18T10:49:40.108Z,97389.34
2022-11-18T10:50:55.836Z,97391.75
2022-11-18T10:52:03.745Z,97391.53
2022-11-18T10:53:27.097Z,97400.25
2022-11-18T10:54:28.930Z,97395.78
2022-11-18T10:55:31.696Z,97393.16
2022-11-18T10:57:05.213Z,97391.72
2022-11-18T10:58:18.382Z,97390.91
2022-11-18T10:59:35.211Z,97392.53
2022-11-18T11:00:46.281Z,97397.00
2022-11-18T11:02:11.622Z,97398.59
2022-11-18T11:03:25.702Z,97397.81
2022-11-18T11:04:29.710Z,97404.91
2022-11-18T11:05:32.167Z,97403.06
2022-11-18T11:06:39.538Z,97398.94
2022-11-18T11:07:41.588Z,97396.53
2022-11-18T11:09:08.180Z,97395.28
2022-11-18T11:10:13.231Z,97399.53
2022-11-18T11:11:37.375Z,97402.75
2022-11-18T11:12:57.253Z,97404.38
2022-11-18T11:14:11.871Z,97404.38
2022-11-18T11:15:19.265Z,97402.53
2022-11-18T11:16:26.261Z,97399.28
2022-11-18T11:17:48.252Z,97394.41
2022-11-18T11:18:59.799Z,97393.81
2022-11-18T11:20:16.824Z,97402.31
2022-11-18T11:21:25.218Z,97402.31
2022-11-18T11:22:28.165Z,97404.16
2022-11-18T11:23:34.170Z,97401.28
2022-11-18T11:24:36.059Z,97406.56
2022-11-18T11:29:43.968Z,97407.38
2022-11-18T11:31:24.151Z,97410.00
2022-11-18T11:33:20.693Z,97405.75
2022-11-18T11:34:43.474Z,97414.69
2022-11-18T11:36:21.817Z,97410.44
2022-11-18T11:38:00.980Z,97413.28
2022-11-18T11:39:33.816Z,97415.13
2022-11-18T11:41:02.349Z,97422.22
2022-11-18T11:42:38.640Z,97416.72
2022-11-18T11:44:08.987Z,97411.44
2022-11-18T11:46:26.924Z,97419.97
2022-11-18T11:47:56.897Z,97419.97
2022-11-18T11:49:23.446Z,97415.28
2022-11-18T11:50:30.213Z,97419.53
2022-11-18T11:52:05.542Z,97417.47
2022-11-18T11:53:38.286Z,97423.09
2022-11-18T11:55:26.566Z,97422.44
2022-11-18T11:56:46.628Z,97418.53
2022-11-18T11:58:03.805Z,97422.19
2022-11-18T11:59:30.342Z,97421.50
2022-11-18T12:00:43.239Z,97420.28
2022-11-18T12:02:25.587Z,97416.16
2022-11-18T12:03:51.643Z,97416.72
2022-11-18T12:04:57.981Z,97417.31
2022-11-18T12:05:59.816Z,97421.78
2022-11-18T12:07:06.136Z,97417.09
2022-11-18T12:08:24.386Z,97421.91
2022-11-18T12:09:32.188Z,97421.91
2022-11-18T12:10:45.827Z,97418.47
2022-11-18T12:12:35.223Z,97412.97
2022-11-18T12:13:47.048Z,97421.91
2022-11-18T12:15:07.253Z,97425.13
2022-11-18T12:16:46.062Z,97423.28
2022-11-18T12:18:09.127Z,97428.56
2022-11-18T12:19:16.765Z,97427.53
2022-11-18T12:20:42.140Z,97433.63
2022-11-18T12:21:46.942Z,97431.78
2022-11-18T12:23:11.618Z,97429.94
2022-11-18T12:24:31.233Z,97428.91
2022-11-18T12:25:48.466Z,97428.91
2022-11-18T12:26:51.844Z,97431.56
2022-11-18T12:28:00.118Z,97431.56
2022-11-18T12:29:20.671Z,97435.22
2022-11-18T12:30:23.148Z,97431.78
2022-11-18T12:31:25.633Z,97428.34
2022-11-18T12:32:45.360Z,97429.94
2022-11-18T12:33:57.032Z,97434.44
2022-11-18T12:35:12.292Z,97436.03
2022-11-18T12:36:35.910Z,97437.28
2022-11-18T12:37:52.576Z,97435.69
2022-11-18T12:38:55.675Z,97435.91
2022-11-18T12:40:00.356Z,97437.75
2022-11-18T12:41:22.227Z,97445.66
2022-11-18T12:43:05.857Z,97448.88
2022-11-18T12:44:11.073Z,97437.75
2022-11-18T12:45:40.891Z,97440.63
2022-11-18T12:46:50.588Z,97440.84
2022-11-18T12:47:52.340Z,97441.06
2022-11-18T12:48:54.246Z,97440.03
2022-11-18T12:50:13.492Z,97441.84
2022-11-18T12:51:15.289Z,97448.16
2022-11-18T12:52:32.256Z,97446.31
2022-11-18T12:53:54.179Z,97440.25
2022-11-18T12:55:13.557Z,97448.97
2022-11-18T12:56:18.449Z,97442.09
2022-11-18T12:57:23.261Z,97445.75
2022-11-18T12:58:26.930Z,97444.72
2022-11-18T12:59:33.291Z,97443.69
2022-11-18T13:00:52.123Z,97448.16
2022-11-18T13:02:23.400Z,97444.50
2022-11-18T13:03:28.957Z,97444.72
2022-11-18T13:04:31.047Z,97442.31
2022-11-18T13:05:36.008Z,97447.59
2022-11-18T13:06:40.062Z,97436.00
2022-11-18T13:08:08.210Z,97441.28
2022-11-18T13:09:22.988Z,97442.31
2022-11-18T13:10:31.777Z,97443.91
2022-11-18T13:11:47.501Z,97438.06
2022-11-18T13:12:50.453Z,97444.16
2022-11-18T13:14:12.942Z,97441.72
2022-11-18T13:15:33.990Z,97443.34
2022-11-18T13:16:55.878Z,97444.59
2022-11-18T13:18:20.570Z,97446.22
2022-11-18T13:19:24.948Z,97451.72
2022-11-18T13:20:31.094Z,97452.75
2022-11-18T13:21:52.019Z,97444.84
2022-11-18T13:23:34.585Z,97448.28
2022-11-18T13:24:49.706Z,97449.31
2022-11-18T13:25:51.804Z,97448.50
2022-11-18T13:26:58.154Z,97446.66
2022-11-18T13:29:00.637Z,97447.47
2022-11-18T13:30:13.035Z,97441.63
2022-11-18T13:31:53.110Z,97438.16
2022-11-18T13:32:59.437Z,97432.88
2022-11-18T13:34:08.563Z,97441.00
2022-11-18T13:35:20.494Z,97434.69
2022-11-18T13:36:26.616Z,97434.94
2022-11-18T13:37:34.355Z,97429.44
2022-11-18T13:38:36.232Z,97433.91